createdAt,value
2023-05-20T00:02:09.678Z,1.00
2023-05-20T00:04:36.223Z,1.15
2023-05-20T00:07:03.846Z,1.25
2023-05-20T00:09:30.415Z,1.05
2023-05-20T00:11:56.980Z,1.15
2023-05-20T00:14:23.572Z,0.95
2023-05-20T00:16:50.172Z,1.00
2023-05-20T00:19:16.932Z,1.20
2023-05-20T00:21:43.767Z,1.23
2023-05-20T00:24:10.312Z,1.20
2023-05-20T00:26:36.804Z,0.90
2023-05-20T00:29:03.340Z,0.98
2023-05-20T00:31:29.908Z,0.98
2023-05-20T00:33:56.501Z,0.98
2023-05-20T00:36:23.017Z,1.00
2023-05-20T00:38:49.647Z,1.20
2023-05-20T00:41:16.148Z,1.08
2023-05-20T00:43:42.678Z,0.90
2023-05-20T00:46:10.063Z,1.20
2023-05-20T00:48:41.794Z,1.00
2023-05-20T00:51:08.812Z,1.00
2023-05-20T00:53:36.256Z,1.27
2023-05-20T00:56:04.396Z,0.98
2023-05-20T00:58:31.524Z,1.83
2023-05-20T01:00:58.575Z,1.30
2023-05-20T01:03:25.652Z,1.10
2023-05-20T01:05:52.448Z,1.08
2023-05-20T01:08:19.063Z,1.17
2023-05-20T01:10:46.797Z,1.10
2023-05-20T01:13:17.684Z,1.10
2023-05-20T01:18:11.020Z,1.20
2023-05-20T01:20:37.918Z,1.08
2023-05-20T01:23:04.448Z,1.02
2023-05-20T01:25:31.024Z,1.10
2023-05-20T01:27:57.967Z,1.17
2023-05-20T01:30:30.943Z,1.13
2023-05-20T01:33:01.372Z,1.15
2023-05-20T01:35:30.527Z,1.35
2023-05-20T01:37:58.119Z,1.13
2023-05-20T01:40:25.386Z,1.02
2023-05-20T01:42:55.030Z,1.33
2023-05-20T01:45:23.916Z,1.00
2023-05-20T01:47:50.693Z,0.90
2023-05-20T01:50:17.331Z,1.17
2023-05-20T01:52:43.883Z,1.15
2023-05-20T01:55:10.459Z,0.90
2023-05-20T01:57:37.032Z,1.17
2023-05-20T02:00:06.239Z,1.20
2023-05-20T02:02:39.982Z,1.50
2023-05-20T02:05:09.581Z,1.42
2023-05-20T02:07:36.157Z,1.50
2023-05-20T02:10:02.713Z,1.30
2023-05-20T02:12:29.237Z,1.63
2023-05-20T02:14:56.177Z,1.48
2023-05-20T02:17:22.749Z,1.33
2023-05-20T02:19:49.639Z,1.30
2023-05-20T02:22:16.358Z,1.65
2023-05-20T02:24:46.602Z,1.60
2023-05-20T02:27:13.240Z,1.70
2023-05-20T02:29:39.781Z,1.70
2023-05-20T02:32:06.666Z,1.65
2023-05-20T02:34:33.304Z,1.75
2023-05-20T02:36:59.939Z,1.60
2023-05-20T02:39:28.485Z,1.50
2023-05-20T02:41:55.271Z,1.50
2023-05-20T02:44:21.824Z,1.67
2023-05-20T02:46:48.325Z,1.52
2023-05-20T02:49:14.870Z,2.20
2023-05-20T02:51:41.866Z,1.92
2023-05-20T02:54:08.395Z,1.90
2023-05-20T02:56:35.396Z,2.00
2023-05-20T02:59:03.652Z,1.90
2023-05-20T03:01:30.343Z,1.98
2023-05-20T03:03:56.922Z,1.90
2023-05-20T03:06:23.510Z,2.15
2023-05-20T03:08:50.022Z,1.55
2023-05-20T03:11:16.526Z,1.70
2023-05-20T03:13:43.069Z,2.10
2023-05-20T03:16:13.068Z,1.60
2023-05-20T03:18:39.800Z,1.53
2023-05-20T03:21:06.361Z,1.83
2023-05-20T03:23:32.883Z,1.58
2023-05-20T03:25:59.595Z,1.88
2023-05-20T03:28:26.563Z,1.75
2023-05-20T03:30:53.416Z,1.50
2023-05-20T03:33:21.213Z,1.63
2023-05-20T03:35:47.714Z,1.60
2023-05-20T03:38:15.911Z,1.65
2023-05-20T03:40:42.428Z,1.55
2023-05-20T03:43:09.034Z,1.83
2023-05-20T03:45:35.793Z,1.50
2023-05-20T03:48:07.180Z,1.60
2023-05-20T03:50:35.533Z,1.63
2023-05-20T03:53:02.254Z,1.75
2023-05-20T03:55:35.361Z,1.92
2023-05-20T03:58:02.508Z,1.42
2023-05-20T04:00:31.685Z,1.40
2023-05-20T04:02:58.514Z,1.60
2023-05-20T04:05:25.240Z,1.35
2023-05-20T04:07:51.886Z,1.40
2023-05-20T04:10:20.549Z,1.55
2023-05-20T04:12:47.134Z,1.27
2023-05-20T04:15:15.008Z,1.30
2023-05-20T04:17:50.444Z,1.40
2023-05-20T04:20:17.395Z,1.42
2023-05-20T04:22:44.171Z,1.25
2023-05-20T04:25:10.934Z,1.52
2023-05-20T04:27:40.360Z,1.20
2023-05-20T04:30:07.810Z,1.80
2023-05-20T04:32:38.780Z,1.38
2023-05-20T04:35:11.969Z,1.13
2023-05-20T04:37:42.244Z,1.30
2023-05-20T04:40:09.520Z,1.40
2023-05-20T04:42:36.232Z,1.15
2023-05-20T04:45:04.522Z,1.75
2023-05-20T04:47:32.204Z,1.40
2023-05-20T04:49:58.727Z,1.08
2023-05-20T04:52:26.020Z,1.50
2023-05-20T04:54:52.747Z,1.08
2023-05-20T04:57:21.124Z,1.10
2023-05-20T04:59:48.006Z,1.20
2023-05-20T05:02:14.786Z,1.15
2023-05-20T05:04:41.503Z,1.23
2023-05-20T05:07:08.505Z,1.40
2023-05-20T05:09:35.223Z,1.20
2023-05-20T05:12:02.776Z,1.17
2023-05-20T05:14:29.362Z,0.80
2023-05-20T05:16:55.967Z,1.20
2023-05-20T05:19:22.951Z,1.25
2023-05-20T05:21:49.845Z,1.20
2023-05-20T05:24:16.404Z,1.02
2023-05-20T05:26:43.043Z,1.27
2023-05-20T05:29:11.592Z,1.20
2023-05-20T05:31:38.368Z,1.20
2023-05-20T05:34:04.884Z,1.30
2023-05-20T05:36:33.594Z,1.10
2023-05-20T05:39:00.628Z,0.93
2023-05-20T05:41:27.410Z,1.13
2023-05-20T05:43:54.259Z,1.05
2023-05-20T05:46:21.066Z,1.25
2023-05-20T05:48:50.497Z,1.13
2023-05-20T05:51:18.084Z,1.20
2023-05-20T05:53:46.306Z,1.30
2023-05-20T05:56:13.316Z,2.38
2023-05-20T05:58:39.956Z,2.30
2023-05-20T06:01:07.234Z,2.65
2023-05-20T06:03:33.931Z,3.10
2023-05-20T06:06:00.516Z,2.85
2023-05-20T06:08:27.266Z,3.38
2023-05-20T06:10:53.904Z,3.65
2023-05-20T06:13:20.629Z,4.00
2023-05-20T06:15:49.632Z,2.88
2023-05-20T06:18:16.832Z,3.50
2023-05-20T06:20:43.430Z,3.60
2023-05-20T06:23:10.043Z,3.55
2023-05-20T06:25:48.850Z,3.55
2023-05-20T06:28:15.531Z,3.47
2023-05-20T06:30:42.362Z,3.40
2023-05-20T06:33:09.049Z,3.67
2023-05-20T06:35:35.969Z,3.80
2023-05-20T06:38:04.445Z,4.95
2023-05-20T06:40:31.011Z,3.97
2023-05-20T06:42:58.066Z,4.43
2023-05-20T06:45:45.165Z,3.90
2023-05-20T06:48:22.784Z,3.47
2023-05-20T06:50:49.280Z,3.42
2023-05-20T06:53:15.839Z,3.40
2023-05-20T06:55:42.378Z,3.92
2023-05-20T06:58:08.911Z,3.75
2023-05-20T07:00:35.851Z,3.78
2023-05-20T07:03:02.698Z,4.03
2023-05-20T07:05:29.502Z,4.30
2023-05-20T07:07:56.822Z,4.05
2023-05-20T07:10:23.364Z,4.13
2023-05-20T07:12:49.948Z,4.20
2023-05-20T07:15:16.561Z,3.95
2023-05-20T07:17:43.206Z,3.80
2023-05-20T07:20:10.112Z,4.70
2023-05-20T07:22:36.854Z,3.60
2023-05-20T07:25:14.417Z,3.70
2023-05-20T07:27:41.038Z,3.63
2023-05-20T07:30:08.743Z,4.10
2023-05-20T07:32:36.468Z,4.03
2023-05-20T07:35:03.103Z,4.13
2023-05-20T07:37:29.699Z,3.45
2023-05-20T07:39:56.313Z,3.80
2023-05-20T07:42:22.876Z,4.32
2023-05-20T07:44:53.570Z,3.92
2023-05-20T07:47:20.656Z,4.82
2023-05-20T07:49:47.348Z,3.63
2023-05-20T07:52:13.866Z,3.90
2023-05-20T07:54:41.390Z,4.15
2023-05-20T07:57:08.004Z,4.10
2023-05-20T07:59:34.548Z,4.25
2023-05-20T08:02:01.375Z,4.15
2023-05-20T08:04:28.419Z,3.97
2023-05-20T08:06:56.432Z,4.00
2023-05-20T08:09:37.346Z,4.25
2023-05-20T08:12:04.027Z,4.05
2023-05-20T08:14:30.653Z,4.15
2023-05-20T08:16:57.901Z,4.43
2023-05-20T08:19:24.508Z,4.82
2023-05-20T08:21:51.144Z,3.80
2023-05-20T08:24:17.729Z,3.92
2023-05-20T08:26:44.359Z,3.90
2023-05-20T08:29:10.883Z,4.30
2023-05-20T08:31:37.486Z,4.80
2023-05-20T08:34:04.483Z,4.82
2023-05-20T08:36:31.107Z,3.92
2023-05-20T08:38:57.681Z,4.20
2023-05-20T08:41:24.948Z,3.90
2023-05-20T08:43:52.441Z,3.50
2023-05-20T08:46:20.385Z,4.03
2023-05-20T08:48:47.046Z,4.25
2023-05-20T08:51:14.765Z,3.88
2023-05-20T08:53:41.310Z,4.05
2023-05-20T08:56:08.477Z,3.97
2023-05-20T08:58:35.302Z,4.05
2023-05-20T09:01:02.267Z,3.67
2023-05-20T09:03:28.851Z,3.72
2023-05-20T09:06:04.008Z,3.50
2023-05-20T09:08:30.838Z,3.60
2023-05-20T09:10:57.462Z,3.47
2023-05-20T09:13:24.125Z,3.80
2023-05-20T09:15:50.901Z,4.10
2023-05-20T09:18:17.536Z,4.88
2023-05-20T09:20:47.156Z,4.30
2023-05-20T09:23:13.749Z,3.40
2023-05-20T09:25:40.396Z,4.35
2023-05-20T09:28:07.826Z,5.07
2023-05-20T09:30:34.435Z,5.45
2023-05-20T09:33:03.521Z,4.72
2023-05-20T09:35:30.603Z,4.65
2023-05-20T09:37:58.387Z,4.72
2023-05-20T09:40:26.694Z,4.80
2023-05-20T09:43:11.137Z,4.53
2023-05-20T09:45:38.551Z,8.55
2023-05-20T09:48:09.034Z,5.85
2023-05-20T09:50:35.986Z,5.35
2023-05-20T09:53:03.881Z,5.00
2023-05-20T09:55:30.886Z,4.97
2023-05-20T09:57:59.307Z,5.32
2023-05-20T10:00:26.004Z,4.93
2023-05-20T10:02:52.999Z,5.28
2023-05-20T10:05:24.786Z,4.35
2023-05-20T10:08:14.275Z,4.38
2023-05-20T10:11:04.365Z,6.28
2023-05-20T10:14:01.998Z,5.28
2023-05-20T10:16:42.062Z,5.03
2023-05-20T10:19:27.370Z,5.50
2023-05-20T10:22:05.342Z,5.18
2023-05-20T10:24:41.019Z,4.65
2023-05-20T10:27:10.199Z,6.32
2023-05-20T10:29:57.194Z,5.60
2023-05-20T10:32:27.637Z,5.97
2023-05-20T10:34:59.514Z,6.65
2023-05-20T10:37:32.181Z,5.50
2023-05-20T10:40:11.510Z,7.80
2023-05-20T10:42:38.081Z,8.18
2023-05-20T10:45:05.232Z,9.00
2023-05-20T10:47:31.953Z,15.50
2023-05-20T10:49:58.664Z,12.85
2023-05-20T10:52:25.480Z,13.30
2023-05-20T10:54:59.126Z,8.55
2023-05-20T10:57:29.265Z,10.23
2023-05-20T10:59:56.367Z,9.00
2023-05-20T11:02:26.719Z,8.85
2023-05-20T11:04:53.735Z,10.38
2023-05-20T11:07:27.879Z,9.43
2023-05-20T11:09:55.747Z,8.05
2023-05-20T11:12:24.216Z,7.03
2023-05-20T11:14:51.506Z,7.85
2023-05-20T11:17:18.991Z,6.78
2023-05-20T11:19:46.695Z,8.15
2023-05-20T11:22:13.254Z,8.15
2023-05-20T11:24:39.764Z,7.20
2023-05-20T11:27:06.840Z,7.95
2023-05-20T11:29:33.524Z,7.82
2023-05-20T11:32:01.421Z,7.38
2023-05-20T11:34:35.018Z,6.43
2023-05-20T11:37:01.520Z,6.90
2023-05-20T11:39:31.095Z,6.65
2023-05-20T11:41:58.941Z,6.93
2023-05-20T11:44:26.089Z,6.63
2023-05-20T11:46:59.802Z,6.45
2023-05-20T11:49:26.417Z,6.88
2023-05-20T11:51:52.931Z,6.30
2023-05-20T11:54:22.432Z,6.32
2023-05-20T11:56:48.977Z,6.50
2023-05-20T11:59:15.629Z,6.18
2023-05-20T12:01:42.944Z,6.68
2023-05-20T12:04:10.250Z,6.10
2023-05-20T12:06:40.010Z,6.75
2023-05-20T12:09:07.435Z,6.35
2023-05-20T12:11:35.595Z,6.05
2023-05-20T12:14:05.068Z,7.20
2023-05-20T12:16:33.270Z,6.50
2023-05-20T12:19:00.625Z,6.85
2023-05-20T12:21:28.771Z,6.55
2023-05-20T12:23:58.829Z,5.82
2023-05-20T12:26:26.864Z,7.57
2023-05-20T12:28:54.298Z,6.55
2023-05-20T12:31:20.880Z,6.07
2023-05-20T12:33:47.482Z,6.72
2023-05-20T12:36:14.447Z,6.70
2023-05-20T12:38:41.339Z,6.10
2023-05-20T12:41:07.992Z,6.00
2023-05-20T12:43:36.832Z,6.55
2023-05-20T12:46:03.860Z,6.47
2023-05-20T12:48:30.534Z,6.13
2023-05-20T12:50:57.112Z,6.57
2023-05-20T12:53:23.651Z,6.55
2023-05-20T12:55:50.155Z,6.40
2023-05-20T12:58:16.725Z,6.30
2023-05-20T13:00:43.252Z,6.13
2023-05-20T13:03:09.922Z,6.45
2023-05-20T13:05:36.560Z,6.20
2023-05-20T13:08:03.257Z,5.93
2023-05-20T13:10:29.785Z,6.38
2023-05-20T13:12:56.393Z,5.88
2023-05-20T13:15:22.924Z,6.45
2023-05-20T13:17:49.567Z,6.93
2023-05-20T13:20:19.023Z,6.13
2023-05-20T13:22:46.326Z,5.95
2023-05-20T13:25:12.874Z,6.35
2023-05-20T13:27:39.454Z,6.78
2023-05-20T13:30:07.137Z,7.13
2023-05-20T13:32:33.921Z,6.97
2023-05-20T13:35:00.682Z,6.88
2023-05-20T13:37:27.196Z,6.78
2023-05-20T13:39:53.743Z,6.20
2023-05-20T13:42:21.052Z,6.60
2023-05-20T13:44:47.547Z,6.63
2023-05-20T13:47:14.163Z,6.05
2023-05-20T13:49:40.695Z,5.97
2023-05-20T13:52:07.423Z,6.65
2023-05-20T13:54:34.735Z,5.88
2023-05-20T13:57:01.870Z,6.68
2023-05-20T13:59:28.441Z,6.03
2023-05-20T14:01:55.246Z,5.65
2023-05-20T14:04:22.327Z,6.10
2023-05-20T14:06:49.060Z,6.22
2023-05-20T14:09:15.821Z,5.75
2023-05-20T14:11:42.460Z,5.90
2023-05-20T14:14:08.981Z,5.65
2023-05-20T14:16:35.591Z,6.72
2023-05-20T14:19:02.251Z,6.13
2023-05-20T14:21:28.752Z,5.80
2023-05-20T14:23:55.848Z,6.38
2023-05-20T14:26:22.374Z,5.32
2023-05-20T14:28:49.116Z,5.97
2023-05-20T14:31:15.952Z,5.72
2023-05-20T14:33:42.496Z,6.00
2023-05-20T14:36:09.106Z,6.38
2023-05-20T14:38:35.726Z,5.68
2023-05-20T14:41:02.266Z,5.28
2023-05-20T14:43:28.800Z,5.88
2023-05-20T14:45:55.378Z,5.07
2023-05-20T14:48:21.860Z,5.60
2023-05-20T14:50:49.709Z,5.93
2023-05-20T14:53:17.043Z,6.55
2023-05-20T14:55:43.624Z,5.57
2023-05-20T14:58:10.165Z,5.38
2023-05-20T15:00:36.858Z,7.45
2023-05-20T15:03:03.887Z,6.30
2023-05-20T15:05:30.961Z,0.32
2023-05-20T15:07:57.581Z,5.32
2023-05-20T15:10:24.205Z,5.22
2023-05-20T15:12:51.381Z,5.13
2023-05-20T15:15:18.308Z,5.03
2023-05-20T15:17:45.177Z,4.70
2023-05-20T15:20:12.176Z,5.05
2023-05-20T15:22:38.876Z,4.93
2023-05-20T15:25:05.649Z,4.60
2023-05-20T15:27:32.146Z,1.40
2023-05-20T15:29:58.696Z,1.25
2023-05-20T15:32:25.705Z,1.08
2023-05-20T15:34:52.488Z,1.50
2023-05-20T15:37:19.152Z,1.23
2023-05-20T15:39:45.812Z,1.17
2023-05-20T15:42:18.378Z,0.80
2023-05-20T15:44:45.873Z,1.20
2023-05-20T15:47:12.416Z,0.93
2023-05-20T15:49:39.124Z,0.68
2023-05-20T15:52:05.850Z,0.77
2023-05-20T15:54:32.965Z,1.02
2023-05-20T15:56:59.882Z,1.20
2023-05-20T15:59:26.593Z,1.15
2023-05-20T16:01:53.207Z,1.30
2023-05-20T16:04:20.006Z,1.50
2023-05-20T16:06:47.129Z,0.77
2023-05-20T16:09:13.627Z,1.83
2023-05-20T16:11:40.217Z,1.08
2023-05-20T16:15:26.596Z,5.53
2023-05-20T16:17:53.234Z,5.45
2023-05-20T16:20:19.928Z,5.53
2023-05-20T16:22:46.436Z,6.00
2023-05-20T16:25:12.921Z,6.25
2023-05-20T16:27:39.444Z,5.53
2023-05-20T16:30:07.456Z,6.40
2023-05-20T16:32:34.048Z,5.90
2023-05-20T16:35:01.633Z,6.00
2023-05-20T16:37:28.421Z,5.47
2023-05-20T16:39:54.922Z,6.05
2023-05-20T16:42:21.415Z,5.50
2023-05-20T16:44:49.816Z,6.80
2023-05-20T16:47:16.698Z,6.45
2023-05-20T16:49:43.207Z,6.28
2023-05-20T16:52:09.771Z,5.63
2023-05-20T16:54:36.395Z,6.00
2023-05-20T16:57:03.785Z,6.05
2023-05-20T16:59:31.493Z,5.63
2023-05-20T17:01:58.232Z,5.70
2023-05-20T17:04:24.759Z,5.45
2023-05-20T17:06:51.296Z,5.20
2023-05-20T17:09:17.853Z,5.68
2023-05-20T17:11:44.416Z,5.55
2023-05-20T17:14:11.063Z,5.30
2023-05-20T17:16:37.646Z,5.78
2023-05-20T17:19:04.246Z,5.50
2023-05-20T17:21:31.125Z,6.05
2023-05-20T17:23:57.650Z,5.88
2023-05-20T17:26:24.235Z,5.47
2023-05-20T17:28:50.803Z,5.68
2023-05-20T17:31:17.305Z,5.45
2023-05-20T17:33:43.896Z,5.68
2023-05-20T17:36:10.557Z,5.60
2023-05-20T17:38:37.151Z,5.72
2023-05-20T17:41:03.759Z,5.93
2023-05-20T17:43:30.311Z,5.45
2023-05-20T17:45:57.089Z,4.63
2023-05-20T17:48:23.703Z,6.03
2023-05-20T17:50:50.183Z,5.57
2023-05-20T17:53:18.688Z,5.68
2023-05-20T17:55:47.076Z,5.68
2023-05-20T17:58:13.587Z,5.65
2023-05-20T18:00:42.255Z,5.57
2023-05-20T18:03:09.603Z,5.90
2023-05-20T18:05:36.557Z,5.90
2023-05-20T18:08:03.451Z,5.72
2023-05-20T18:10:30.012Z,5.38
2023-05-20T18:12:56.549Z,5.57
2023-05-20T18:15:23.079Z,5.93
2023-05-20T18:17:49.599Z,6.43
2023-05-20T18:20:16.441Z,6.30
2023-05-20T18:22:45.601Z,6.15
2023-05-20T18:25:15.536Z,6.35
2023-05-20T18:27:42.275Z,6.78
2023-05-20T18:30:10.011Z,5.90
2023-05-20T18:32:36.630Z,6.28
2023-05-20T18:35:03.236Z,6.00
2023-05-20T18:37:29.764Z,6.38
2023-05-20T18:39:59.197Z,6.10
2023-05-20T18:42:25.738Z,7.72
2023-05-20T18:44:52.592Z,6.80
2023-05-20T18:47:19.107Z,6.68
2023-05-20T18:49:46.006Z,6.65
2023-05-20T18:52:12.630Z,6.32
2023-05-20T18:54:39.168Z,6.72
2023-05-20T18:57:06.115Z,6.63
2023-05-20T18:59:32.699Z,6.95
2023-05-20T19:01:59.353Z,6.18
2023-05-20T19:04:26.086Z,6.93
2023-05-20T19:06:53.018Z,7.00
2023-05-20T19:09:20.064Z,7.00
2023-05-20T19:11:46.574Z,7.43
2023-05-20T19:14:13.086Z,7.03
2023-05-20T19:16:39.752Z,7.30
2023-05-20T19:19:06.338Z,7.35
2023-05-20T19:21:33.523Z,7.25
2023-05-20T19:24:00.191Z,7.20
2023-05-20T19:26:26.735Z,7.45
2023-05-20T19:28:53.295Z,7.03
2023-05-20T19:31:22.733Z,7.50
2023-05-20T19:33:52.491Z,8.23
2023-05-20T19:36:19.255Z,7.25
2023-05-20T19:38:46.806Z,9.48
2023-05-20T19:41:13.793Z,9.18
2023-05-20T19:43:40.390Z,6.97
2023-05-20T19:46:06.983Z,7.28
2023-05-20T19:48:33.803Z,6.57
2023-05-20T19:51:02.106Z,7.05
2023-05-20T19:53:28.632Z,7.03
2023-05-20T19:55:55.135Z,7.22
2023-05-20T19:58:22.449Z,8.63
2023-05-20T20:00:49.006Z,7.60
2023-05-20T20:03:15.613Z,6.30
2023-05-20T20:05:42.160Z,7.13
2023-05-20T20:08:08.687Z,7.28
2023-05-20T20:10:37.374Z,6.82
2023-05-20T20:13:03.914Z,6.35
2023-05-20T20:15:31.672Z,6.57
2023-05-20T20:17:58.529Z,6.55
2023-05-20T20:20:26.499Z,6.45
2023-05-20T20:22:53.005Z,6.75
2023-05-20T20:25:20.374Z,6.45
2023-05-20T20:27:48.282Z,6.57
2023-05-20T20:30:15.438Z,6.85
2023-05-20T20:32:42.540Z,6.78
2023-05-20T20:35:09.521Z,6.40
2023-05-20T20:37:37.840Z,6.85
2023-05-20T20:40:13.294Z,6.57
2023-05-20T20:42:41.577Z,6.53
2023-05-20T20:45:08.528Z,6.07
2023-05-20T20:47:35.066Z,6.65
2023-05-20T20:50:03.342Z,6.85
2023-05-20T20:52:29.832Z,6.53
2023-05-20T20:54:57.405Z,6.85
2023-05-20T20:57:25.022Z,6.72
2023-05-20T20:59:53.903Z,6.93
2023-05-20T21:02:20.752Z,6.75
2023-05-20T21:04:47.356Z,6.95
2023-05-20T21:07:17.883Z,6.78
2023-05-20T21:09:45.361Z,7.80
2023-05-20T21:12:11.922Z,7.53
2023-05-20T21:14:38.428Z,7.22
2023-05-20T21:17:05.181Z,7.97
2023-05-20T21:19:31.941Z,7.57
2023-05-20T21:21:58.471Z,8.15
2023-05-20T21:24:25.205Z,7.00
2023-05-20T21:26:51.737Z,6.88
2023-05-20T21:29:18.244Z,8.15
2023-05-20T21:31:44.760Z,7.57
2023-05-20T21:34:11.471Z,7.60
2023-05-20T21:36:37.965Z,7.80
2023-05-20T21:39:04.616Z,8.07
2023-05-20T21:41:31.398Z,8.38
2023-05-20T21:43:57.896Z,8.20
2023-05-20T21:46:24.388Z,8.10
2023-05-20T21:48:50.928Z,8.70
2023-05-20T21:51:17.416Z,9.32
2023-05-20T21:53:43.934Z,9.20
2023-05-20T21:56:10.528Z,9.10
2023-05-20T21:58:41.094Z,9.20
2023-05-20T22:01:09.575Z,9.68
2023-05-20T22:03:36.469Z,8.48
2023-05-20T22:06:04.999Z,8.50
2023-05-20T22:08:33.681Z,8.70
2023-05-20T22:11:07.344Z,8.93
2023-05-20T22:13:35.245Z,9.10
2023-05-20T22:16:04.922Z,9.23
2023-05-20T22:18:31.852Z,8.43
2023-05-20T22:20:59.442Z,9.95
2023-05-20T22:23:26.700Z,9.38
2023-05-20T22:25:53.236Z,9.60
2023-05-20T22:28:19.741Z,10.55
2023-05-20T22:30:46.437Z,9.95
2023-05-20T22:33:13.098Z,10.70
2023-05-20T22:35:39.652Z,11.05
2023-05-20T22:38:06.573Z,10.50
2023-05-20T22:40:33.683Z,11.13
2023-05-20T22:43:00.186Z,11.15
2023-05-20T22:45:26.691Z,11.00
2023-05-20T22:47:54.133Z,11.32
2023-05-20T22:50:20.859Z,11.98
2023-05-20T22:52:47.440Z,12.20
2023-05-20T22:55:13.935Z,12.13
2023-05-20T22:57:40.510Z,12.38
2023-05-20T23:00:07.895Z,12.07
2023-05-20T23:02:35.116Z,12.52
2023-05-20T23:05:03.735Z,12.32
2023-05-20T23:07:31.261Z,12.68
2023-05-20T23:09:57.790Z,13.15
2023-05-20T23:12:24.337Z,13.18
2023-05-20T23:14:51.621Z,13.38
2023-05-20T23:17:18.150Z,13.98
2023-05-20T23:19:44.687Z,13.32
2023-05-20T23:22:12.043Z,13.75
2023-05-20T23:24:38.638Z,13.98
2023-05-20T23:27:06.103Z,14.30
2023-05-20T23:29:32.622Z,13.70
2023-05-20T23:31:59.109Z,13.88
2023-05-20T23:34:27.246Z,14.50
2023-05-20T23:36:53.834Z,14.60
2023-05-20T23:39:21.136Z,14.48
2023-05-20T23:41:47.694Z,14.35
2023-05-20T23:44:17.205Z,14.55
2023-05-20T23:46:44.850Z,13.82
2023-05-20T23:49:12.535Z,15.85
2023-05-20T23:51:39.541Z,14.00
2023-05-20T23:54:06.034Z,13.57
2023-05-20T23:56:32.541Z,14.05
2023-05-20T23:58:59.033Z,14.82
